createdAt,value
2019-03-02T00:01:00.145Z,8.80
2019-03-02T00:03:27.507Z,9.00
2019-03-02T00:05:56.942Z,8.90
2019-03-02T00:08:25.150Z,8.80
2019-03-02T00:10:53.224Z,8.80
2019-03-02T00:13:20.534Z,8.70
2019-03-02T00:15:47.918Z,8.50
2019-03-02T00:18:15.162Z,8.10
2019-03-02T00:20:42.507Z,7.50
2019-03-02T00:23:09.732Z,7.20
2019-03-02T00:25:37.109Z,7.10
2019-03-02T00:28:04.466Z,7.00
2019-03-02T00:30:31.821Z,7.00
2019-03-02T00:32:59.156Z,7.10
2019-03-02T00:35:26.395Z,7.10
2019-03-02T00:37:53.826Z,7.10
2019-03-02T00:40:21.166Z,7.10
2019-03-02T00:42:48.750Z,7.10
2019-03-02T00:45:17.649Z,7.10
2019-03-02T00:47:44.895Z,7.10
2019-03-02T00:50:12.238Z,7.20
2019-03-02T00:52:39.582Z,7.20
2019-03-02T00:55:07.034Z,7.30
2019-03-02T00:57:34.269Z,7.50
2019-03-02T01:00:01.610Z,7.50
2019-03-02T01:02:28.977Z,7.70
2019-03-02T01:04:57.788Z,7.80
2019-03-02T01:07:25.686Z,7.80
2019-03-02T01:09:52.958Z,7.90
2019-03-02T01:12:20.248Z,7.90
2019-03-02T01:14:47.515Z,7.90
2019-03-02T01:17:14.947Z,7.80
2019-03-02T01:19:42.462Z,7.90
2019-03-02T01:22:09.826Z,7.80
2019-03-02T01:24:38.983Z,7.90
2019-03-02T01:27:06.333Z,7.90
2019-03-02T01:29:33.712Z,7.90
2019-03-02T01:32:01.049Z,7.80
2019-03-02T01:34:28.326Z,7.80
2019-03-02T01:36:55.610Z,7.80
2019-03-02T01:39:25.862Z,7.70
2019-03-02T01:41:53.924Z,7.40
2019-03-02T01:44:21.169Z,7.10
2019-03-02T01:46:48.624Z,7.00
2019-03-02T01:49:15.914Z,6.90
2019-03-02T01:51:43.369Z,6.90
2019-03-02T01:54:10.730Z,6.90
2019-03-02T01:56:41.384Z,7.00
2019-03-02T01:59:07.870Z,6.90
2019-03-02T02:01:35.109Z,7.00
2019-03-02T02:04:02.466Z,6.90
2019-03-02T02:06:29.966Z,7.00
2019-03-02T02:08:57.333Z,6.80
2019-03-02T02:11:24.602Z,6.90
2019-03-02T02:13:52.033Z,7.00
2019-03-02T02:16:19.373Z,6.80
2019-03-02T02:18:46.742Z,6.80
2019-03-02T02:21:14.023Z,6.80
2019-03-02T02:23:41.561Z,6.90
2019-03-02T02:26:11.383Z,7.00
2019-03-02T02:28:38.202Z,6.90
2019-03-02T02:31:06.181Z,6.90
2019-03-02T02:33:42.664Z,7.00
2019-03-02T02:36:05.360Z,7.00
2019-03-02T02:38:33.023Z,6.90
2019-03-02T02:41:00.327Z,6.90
2019-03-02T02:43:27.582Z,6.90
2019-03-02T02:45:55.222Z,7.00
2019-03-02T02:48:26.299Z,7.00
2019-03-02T02:50:52.285Z,7.00
2019-03-02T02:53:19.558Z,6.90
2019-03-02T02:55:46.811Z,6.80
2019-03-02T02:58:17.663Z,6.80
2019-03-02T03:00:43.619Z,6.80
2019-03-02T03:03:10.868Z,6.70
2019-03-02T03:05:38.268Z,6.60
2019-03-02T03:08:05.599Z,6.60
2019-03-02T03:10:35.119Z,6.50
2019-03-02T03:13:04.466Z,6.60
2019-03-02T03:15:38.562Z,6.60
2019-03-02T03:18:11.748Z,6.70
2019-03-02T03:20:35.993Z,6.70
2019-03-02T03:23:03.561Z,6.60
2019-03-02T03:25:30.931Z,6.50
2019-03-02T03:27:58.470Z,6.50
2019-03-02T03:30:35.377Z,6.50
2019-03-02T03:32:58.935Z,6.40
2019-03-02T03:35:24.402Z,6.30
2019-03-02T03:37:52.689Z,6.20
2019-03-02T03:40:25.186Z,6.20
2019-03-02T03:42:49.305Z,6.20
2019-03-02T03:45:16.755Z,6.30
2019-03-02T03:47:44.063Z,6.10
2019-03-02T03:50:14.130Z,5.90
2019-03-02T03:52:44.132Z,5.90
2019-03-02T03:55:09.955Z,5.80
2019-03-02T03:57:37.207Z,5.80
2019-03-02T04:00:08.244Z,6.00
2019-03-02T04:02:36.958Z,5.80
2019-03-02T04:05:08.567Z,5.80
2019-03-02T04:07:34.151Z,5.80
2019-03-02T04:10:01.395Z,5.60
2019-03-02T04:12:28.764Z,5.70
2019-03-02T04:15:01.296Z,5.60
2019-03-02T04:17:26.125Z,5.70
2019-03-02T04:19:53.387Z,5.60
2019-03-02T04:22:20.775Z,5.40
2019-03-02T04:24:48.166Z,5.30
2019-03-02T04:27:17.100Z,5.10
2019-03-02T04:29:49.798Z,4.90
2019-03-02T04:32:14.069Z,4.80
2019-03-02T04:34:41.313Z,4.70
2019-03-02T04:37:08.653Z,4.70
2019-03-02T04:39:35.918Z,4.80
2019-03-02T04:42:03.171Z,4.90
2019-03-02T04:44:30.837Z,4.80
2019-03-02T04:46:58.281Z,4.60
2019-03-02T04:49:25.567Z,4.60
2019-03-02T04:51:53.074Z,4.60
2019-03-02T04:54:20.342Z,4.50
2019-03-02T04:56:48.338Z,4.50
2019-03-02T04:59:18.645Z,4.50
2019-03-02T05:01:46.202Z,4.40
2019-03-02T05:04:13.866Z,4.40
2019-03-02T05:06:41.243Z,4.50
2019-03-02T05:09:08.515Z,4.60
2019-03-02T05:11:39.305Z,4.60
2019-03-02T05:14:05.526Z,4.70
2019-03-02T05:16:33.945Z,4.80
2019-03-02T05:19:01.346Z,4.80
2019-03-02T05:21:28.682Z,4.90
2019-03-02T05:23:56.054Z,5.00
2019-03-02T05:26:23.620Z,5.20
2019-03-02T05:28:50.993Z,5.30
2019-03-02T05:31:18.447Z,5.40
2019-03-02T05:33:45.854Z,5.40
2019-03-02T05:36:13.286Z,5.30
2019-03-02T05:38:40.811Z,5.40
2019-03-02T05:41:08.178Z,5.50
2019-03-02T05:43:35.425Z,5.40
2019-03-02T05:46:02.798Z,5.50
2019-03-02T05:48:30.134Z,5.40
2019-03-02T05:50:57.409Z,5.50
2019-03-02T05:53:26.817Z,5.40
2019-03-02T05:55:54.940Z,5.30
2019-03-02T05:58:22.405Z,5.10
2019-03-02T06:00:49.656Z,5.00
2019-03-02T06:03:18.739Z,5.00
2019-03-02T06:05:46.216Z,5.10
2019-03-02T06:08:13.462Z,5.10
2019-03-02T06:10:40.706Z,5.10
2019-03-02T06:13:08.057Z,5.10
2019-03-02T06:15:35.482Z,5.20
2019-03-02T06:18:04.385Z,5.20
2019-03-02T06:20:32.611Z,5.30
2019-03-02T06:23:01.104Z,5.20
2019-03-02T06:25:28.630Z,5.20
2019-03-02T06:27:55.881Z,5.30
2019-03-02T06:30:23.507Z,5.30
2019-03-02T06:32:51.266Z,5.40
2019-03-02T06:35:18.631Z,5.40
2019-03-02T06:37:46.002Z,5.50
2019-03-02T06:40:16.127Z,5.60
2019-03-02T06:42:45.737Z,5.60
2019-03-02T06:45:12.335Z,5.60
2019-03-02T06:47:43.713Z,5.70
2019-03-02T06:50:11.610Z,5.60
2019-03-02T06:52:39.008Z,5.60
2019-03-02T06:55:07.723Z,5.70
2019-03-02T06:57:35.086Z,5.70
2019-03-02T07:00:04.406Z,5.70
2019-03-02T07:02:35.031Z,5.70
2019-03-02T07:05:00.968Z,5.70
2019-03-02T07:07:28.202Z,5.80
2019-03-02T07:09:56.017Z,5.70
2019-03-02T07:12:23.349Z,5.70
2019-03-02T07:14:51.778Z,5.80
2019-03-02T07:17:37.009Z,5.80
2019-03-02T07:20:12.806Z,5.80
2019-03-02T07:22:40.269Z,5.80
2019-03-02T07:25:07.494Z,5.90
2019-03-02T07:27:34.754Z,5.90
2019-03-02T07:30:02.610Z,5.90
2019-03-02T07:32:30.277Z,5.90
2019-03-02T07:34:57.649Z,5.70
2019-03-02T07:37:24.992Z,5.90
2019-03-02T07:39:52.365Z,5.90
2019-03-02T07:42:19.590Z,5.90
2019-03-02T07:44:46.885Z,5.90
2019-03-02T07:47:14.103Z,6.00
2019-03-02T07:49:41.349Z,6.00
2019-03-02T07:52:08.690Z,6.00
2019-03-02T07:54:38.821Z,6.10
2019-03-02T07:57:08.690Z,6.10
2019-03-02T07:59:34.727Z,6.10
2019-03-02T08:02:02.110Z,6.10
2019-03-02T08:04:29.657Z,6.10
2019-03-02T08:06:58.006Z,6.20
2019-03-02T08:09:27.072Z,6.20
2019-03-02T08:11:54.669Z,6.30
2019-03-02T08:14:22.006Z,6.30
2019-03-02T08:16:49.401Z,6.40
2019-03-02T08:19:16.710Z,6.40
2019-03-02T08:21:44.966Z,6.50
2019-03-02T08:24:12.214Z,6.70
2019-03-02T08:26:39.677Z,6.70
2019-03-02T08:29:06.947Z,6.70
2019-03-02T08:31:34.385Z,6.70
2019-03-02T08:34:01.756Z,6.70
2019-03-02T08:36:29.118Z,6.60
2019-03-02T08:38:56.513Z,6.70
2019-03-02T08:41:24.441Z,6.80
2019-03-02T08:43:52.160Z,7.00
2019-03-02T08:46:19.575Z,6.90
2019-03-02T08:48:46.998Z,6.80
2019-03-02T08:51:14.402Z,6.70
2019-03-02T08:53:41.769Z,6.70
2019-03-02T08:56:11.862Z,6.70
2019-03-02T08:58:38.334Z,6.80
2019-03-02T09:01:06.010Z,6.70
2019-03-02T09:03:33.783Z,6.70
2019-03-02T09:06:11.360Z,6.80
2019-03-02T09:08:31.977Z,7.00
2019-03-02T09:10:59.394Z,6.90
2019-03-02T09:13:26.744Z,6.90
2019-03-02T09:15:54.163Z,6.90
2019-03-02T09:18:21.694Z,6.90
2019-03-02T09:20:49.133Z,6.90
2019-03-02T09:23:16.393Z,7.00
2019-03-02T09:25:43.820Z,6.90
2019-03-02T09:28:11.169Z,7.00
2019-03-02T09:30:38.413Z,7.00
2019-03-02T09:33:05.986Z,6.90
2019-03-02T09:35:33.398Z,6.80
2019-03-02T09:38:17.001Z,6.70
2019-03-02T09:40:45.834Z,6.60
2019-03-02T09:43:12.826Z,6.50
2019-03-02T09:45:44.882Z,6.40
2019-03-02T09:48:10.815Z,6.50
2019-03-02T09:50:38.041Z,6.50
2019-03-02T09:53:05.490Z,6.60
2019-03-02T09:55:32.758Z,6.70
2019-03-02T09:58:00.098Z,6.70
2019-03-02T10:00:27.583Z,6.70
2019-03-02T10:02:54.934Z,6.80
2019-03-02T10:05:22.374Z,6.80
2019-03-02T10:07:49.703Z,6.80
2019-03-02T10:10:17.226Z,6.80
2019-03-02T10:12:47.327Z,6.80
2019-03-02T10:15:19.478Z,6.90
2019-03-02T10:17:47.222Z,7.00
2019-03-02T10:20:14.567Z,7.00
2019-03-02T10:22:41.934Z,7.00
2019-03-02T10:25:10.525Z,7.00
2019-03-02T10:27:37.765Z,7.00
2019-03-02T10:30:08.358Z,6.90
2019-03-02T10:32:35.723Z,6.90
2019-03-02T10:35:03.126Z,6.90
2019-03-02T10:37:30.374Z,6.90
2019-03-02T10:39:57.650Z,6.80
2019-03-02T10:42:25.075Z,7.00
2019-03-02T10:44:53.757Z,7.10
2019-03-02T10:47:21.635Z,7.10
2019-03-02T10:49:49.297Z,7.10
2019-03-02T10:52:16.638Z,7.10
2019-03-02T10:54:43.906Z,7.30
2019-03-02T10:57:11.242Z,7.40
2019-03-02T10:59:38.587Z,7.40
2019-03-02T11:02:06.242Z,7.10
2019-03-02T11:04:58.686Z,7.00
2019-03-02T11:07:54.614Z,7.00
2019-03-02T11:10:59.598Z,7.10
2019-03-02T11:13:38.805Z,7.10
2019-03-02T11:16:18.305Z,7.00
2019-03-02T11:19:27.426Z,7.10
2019-03-02T11:22:06.471Z,7.00
2019-03-02T11:25:02.340Z,7.00
2019-03-02T11:27:52.059Z,7.00
2019-03-02T11:30:34.694Z,7.10
2019-03-02T11:33:24.223Z,7.10
2019-03-02T11:36:15.744Z,7.10
2019-03-02T11:39:05.389Z,7.10
2019-03-02T11:41:58.062Z,7.20
2019-03-02T11:44:44.935Z,7.30
2019-03-02T11:47:33.026Z,7.30
2019-03-02T11:50:14.315Z,7.40
2019-03-02T11:52:59.752Z,7.40
2019-03-02T11:55:49.805Z,7.50
2019-03-02T11:58:36.839Z,7.50
2019-03-02T12:01:16.986Z,7.30
2019-03-02T12:04:11.971Z,7.10
2019-03-02T12:06:52.618Z,7.10
2019-03-02T12:09:30.302Z,7.30
2019-03-02T12:12:07.525Z,7.10
2019-03-02T12:14:48.045Z,7.00
2019-03-02T12:17:25.458Z,7.10
2019-03-02T12:20:02.163Z,7.40
2019-03-02T12:22:54.190Z,7.60
2019-03-02T12:25:41.906Z,7.70
2019-03-02T12:28:27.445Z,7.80
2019-03-02T12:31:19.954Z,7.90
2019-03-02T12:34:03.658Z,7.80
2019-03-02T12:36:41.231Z,7.70
2019-03-02T12:39:25.138Z,7.80
2019-03-02T12:42:18.182Z,7.70
2019-03-02T12:45:03.507Z,7.80
2019-03-02T12:47:50.399Z,7.70
2019-03-02T12:50:35.883Z,7.80
2019-03-02T12:53:31.494Z,7.90
2019-03-02T12:56:07.079Z,8.00
2019-03-02T12:58:50.386Z,8.20
2019-03-02T13:01:40.046Z,8.20
2019-03-02T13:04:41.782Z,8.20
2019-03-02T13:07:21.273Z,7.90
2019-03-02T13:09:59.156Z,7.80
2019-03-02T13:12:51.939Z,7.80
2019-03-02T13:15:48.500Z,8.00
2019-03-02T13:18:41.933Z,7.90
2019-03-02T13:21:22.785Z,7.70
2019-03-02T13:24:08.536Z,7.80
2019-03-02T13:26:58.620Z,8.00
2019-03-02T13:29:49.240Z,8.00
2019-03-02T13:32:31.668Z,8.00
2019-03-02T13:35:27.215Z,8.00
2019-03-02T13:38:16.763Z,8.10
2019-03-02T13:40:52.646Z,8.10
2019-03-02T13:43:45.161Z,8.00
2019-03-02T13:46:34.521Z,8.10
2019-03-02T13:49:18.778Z,8.00
2019-03-02T13:52:11.263Z,8.00
2019-03-02T13:55:13.515Z,7.90
2019-03-02T13:57:46.802Z,7.80
2019-03-02T14:00:40.609Z,7.90
2019-03-02T14:03:46.802Z,8.00
2019-03-02T14:06:35.087Z,8.00
2019-03-02T14:09:34.094Z,7.90
2019-03-02T14:12:11.940Z,7.90
2019-03-02T14:15:04.370Z,8.00
2019-03-02T14:17:43.122Z,7.70
2019-03-02T14:20:41.977Z,7.50
2019-03-02T14:23:26.416Z,7.50
2019-03-02T14:26:06.771Z,7.70
2019-03-02T14:28:48.934Z,7.60
2019-03-02T14:31:51.625Z,7.50
2019-03-02T14:34:40.321Z,7.50
2019-03-02T14:37:13.679Z,7.20
2019-03-02T14:39:48.497Z,6.90
2019-03-02T14:42:28.877Z,6.90
2019-03-02T14:45:20.066Z,7.10
2019-03-02T14:48:15.990Z,7.20
2019-03-02T14:51:16.983Z,7.30
2019-03-02T14:54:09.299Z,7.40
2019-03-02T14:56:44.910Z,7.40
2019-03-02T14:59:50.159Z,7.30
2019-03-02T15:02:49.119Z,7.40
2019-03-02T15:05:35.627Z,7.40
2019-03-02T15:08:08.154Z,7.50
2019-03-02T15:10:54.054Z,7.40
2019-03-02T15:13:40.930Z,7.50
2019-03-02T15:16:38.103Z,7.60
2019-03-02T15:19:27.096Z,7.60
2019-03-02T15:22:20.441Z,7.60
2019-03-02T15:25:16.346Z,7.60
2019-03-02T15:28:08.870Z,7.60
2019-03-02T15:30:59.197Z,7.50
2019-03-02T15:33:48.117Z,7.60
2019-03-02T15:36:47.591Z,7.40
2019-03-02T15:39:35.547Z,7.30
2019-03-02T15:42:18.082Z,7.40
2019-03-02T15:45:09.329Z,7.50
2019-03-02T15:47:54.888Z,7.50
2019-03-02T15:50:36.602Z,7.50
2019-03-02T15:53:21.799Z,7.60
2019-03-02T15:56:06.553Z,7.60
2019-03-02T15:58:59.624Z,7.60
2019-03-02T16:01:41.370Z,7.60
2019-03-02T16:04:28.406Z,7.70
2019-03-02T16:07:15.486Z,7.70
2019-03-02T16:09:55.034Z,7.70
2019-03-02T16:12:32.912Z,7.60
2019-03-02T16:15:12.559Z,7.40
2019-03-02T16:17:59.542Z,7.50
2019-03-02T16:20:34.524Z,7.40
2019-03-02T16:23:09.670Z,7.40
2019-03-02T16:26:03.777Z,7.40
2019-03-02T16:28:50.827Z,7.50
2019-03-02T16:31:29.590Z,7.50
2019-03-02T16:34:08.709Z,7.40
2019-03-02T16:37:05.055Z,7.50
2019-03-02T16:39:44.201Z,7.40
2019-03-02T16:42:50.852Z,7.40
2019-03-02T16:45:25.895Z,7.50
2019-03-02T16:48:02.050Z,7.50
2019-03-02T16:50:43.028Z,7.50
2019-03-02T16:53:19.528Z,7.50
2019-03-02T16:55:57.098Z,7.40
2019-03-02T16:59:10.954Z,7.50
2019-03-02T17:02:01.211Z,7.50
2019-03-02T17:04:45.527Z,7.50
2019-03-02T17:07:38.058Z,7.40
2019-03-02T17:10:36.902Z,7.40
2019-03-02T17:13:31.999Z,7.30
2019-03-02T17:16:35.726Z,7.30
2019-03-02T17:19:18.847Z,7.30
2019-03-02T17:22:20.780Z,7.30
2019-03-02T17:25:10.498Z,7.30
2019-03-02T17:27:58.224Z,7.30
2019-03-02T17:30:34.198Z,7.30
2019-03-02T17:33:10.961Z,7.40
2019-03-02T17:35:50.695Z,7.40
2019-03-02T17:38:27.252Z,7.50
2019-03-02T17:41:19.958Z,7.30
2019-03-02T17:44:18.799Z,7.20
2019-03-02T17:47:00.595Z,7.20
2019-03-02T17:49:56.666Z,7.30
2019-03-02T17:52:43.193Z,7.30
2019-03-02T17:55:29.639Z,7.30
2019-03-02T17:58:34.790Z,7.30
2019-03-02T18:01:11.564Z,7.20
2019-03-02T18:03:50.541Z,7.30
2019-03-02T18:06:23.796Z,7.20
2019-03-02T18:09:08.295Z,7.20
2019-03-02T18:11:58.247Z,7.20
2019-03-02T18:14:43.170Z,7.30
2019-03-02T18:17:23.050Z,7.30
2019-03-02T18:19:50.305Z,7.30
2019-03-02T18:22:17.541Z,7.20
2019-03-02T18:24:46.868Z,7.20
2019-03-02T18:27:14.103Z,7.20
2019-03-02T18:29:41.378Z,7.20
2019-03-02T18:32:08.748Z,7.20
2019-03-02T18:34:36.078Z,7.20
2019-03-02T18:37:03.337Z,7.20
2019-03-02T18:39:30.698Z,7.20
2019-03-02T18:41:58.168Z,7.30
2019-03-02T18:44:27.665Z,7.30
2019-03-02T18:46:54.858Z,7.20
2019-03-02T18:49:36.892Z,7.20
2019-03-02T18:52:22.642Z,7.10
2019-03-02T18:54:50.687Z,7.10
2019-03-02T18:57:18.156Z,7.20
2019-03-02T18:59:47.413Z,7.10
2019-03-02T19:02:14.587Z,7.20
2019-03-02T19:04:41.923Z,7.10
2019-03-02T19:07:09.158Z,7.10
2019-03-02T19:09:36.453Z,7.20
2019-03-02T19:12:03.785Z,7.30
2019-03-02T19:14:31.061Z,7.20
2019-03-02T19:16:58.410Z,7.20
2019-03-02T19:19:25.639Z,7.30
2019-03-02T19:21:52.870Z,7.20
2019-03-02T19:24:20.165Z,7.20
2019-03-02T19:26:47.517Z,7.10
2019-03-02T19:29:14.965Z,7.10
2019-03-02T19:31:42.238Z,7.00
2019-03-02T19:34:09.482Z,7.00
2019-03-02T19:36:36.707Z,6.90
2019-03-02T19:39:15.114Z,6.90
2019-03-02T19:41:42.422Z,7.00
2019-03-02T19:44:09.768Z,7.00
2019-03-02T19:46:37.114Z,6.90
2019-03-02T19:49:04.395Z,6.90
2019-03-02T19:51:31.777Z,6.90
2019-03-02T19:53:59.126Z,7.10
2019-03-02T19:56:26.483Z,7.00
2019-03-02T19:58:53.839Z,6.90
2019-03-02T20:01:21.113Z,6.80
2019-03-02T20:03:48.589Z,6.90
2019-03-02T20:06:15.958Z,6.80
2019-03-02T20:08:43.383Z,6.80
2019-03-02T20:11:10.774Z,6.70
2019-03-02T20:13:38.318Z,6.80
2019-03-02T20:16:05.798Z,6.80
2019-03-02T20:18:33.223Z,6.80
2019-03-02T20:21:01.568Z,6.60
2019-03-02T20:23:36.958Z,6.70
2019-03-02T20:25:58.118Z,6.70
2019-03-02T20:28:25.354Z,6.80
2019-03-02T20:30:52.750Z,6.90
2019-03-02T20:33:19.975Z,6.80
2019-03-02T20:35:47.349Z,6.90
2019-03-02T20:38:14.600Z,6.90
2019-03-02T20:40:41.990Z,6.80
2019-03-02T20:43:09.292Z,6.90
2019-03-02T20:45:36.878Z,6.90
2019-03-02T20:48:04.124Z,6.90
2019-03-02T20:50:31.362Z,7.00
2019-03-02T20:52:58.617Z,7.10
2019-03-02T20:55:25.932Z,7.00
2019-03-02T20:57:53.243Z,7.10
2019-03-02T21:00:23.378Z,6.90
2019-03-02T21:02:51.042Z,7.00
2019-03-02T21:05:18.378Z,7.00
2019-03-02T21:07:45.823Z,7.00
2019-03-02T21:10:14.433Z,7.10
2019-03-02T21:12:41.781Z,7.10
2019-03-02T21:15:12.701Z,6.90
2019-03-02T21:17:39.998Z,6.90
2019-03-02T21:20:09.389Z,6.90
2019-03-02T21:22:36.628Z,6.90
2019-03-02T21:25:04.822Z,6.90
2019-03-02T21:27:32.079Z,6.90
2019-03-02T21:29:59.313Z,7.00
2019-03-02T21:32:26.694Z,7.10
2019-03-02T21:34:54.022Z,7.10
2019-03-02T21:37:21.379Z,7.10
2019-03-02T21:39:48.634Z,7.00
2019-03-02T21:42:16.063Z,7.00
2019-03-02T21:44:43.310Z,7.00
2019-03-02T21:47:10.542Z,7.10
2019-03-02T21:49:37.894Z,7.00
2019-03-02T21:52:05.170Z,7.00
2019-03-02T21:54:32.417Z,7.00
2019-03-02T21:56:59.692Z,6.90
2019-03-02T21:59:26.954Z,7.00
2019-03-02T22:01:54.300Z,6.90
2019-03-02T22:04:21.530Z,7.00
2019-03-02T22:06:48.862Z,7.00
2019-03-02T22:09:16.239Z,7.00
2019-03-02T22:11:43.481Z,7.10
2019-03-02T22:14:10.734Z,7.10
2019-03-02T22:16:37.954Z,7.30
2019-03-02T22:19:05.203Z,7.40
2019-03-02T22:21:32.467Z,7.30
2019-03-02T22:23:59.898Z,7.30
2019-03-02T22:26:27.137Z,7.30
2019-03-02T22:28:54.482Z,7.30
2019-03-02T22:31:21.692Z,7.20
2019-03-02T22:33:48.929Z,7.30
2019-03-02T22:36:16.205Z,7.20
2019-03-02T22:38:43.463Z,7.20
2019-03-02T22:41:10.714Z,7.10
2019-03-02T22:43:38.130Z,7.10
2019-03-02T22:46:05.345Z,6.90
2019-03-02T22:48:32.697Z,7.00
2019-03-02T22:50:59.922Z,7.00
2019-03-02T22:53:27.138Z,7.10
2019-03-02T22:55:54.461Z,7.20
2019-03-02T22:58:30.716Z,7.10
2019-03-02T23:01:43.698Z,6.80
2019-03-02T23:04:10.930Z,6.40
2019-03-02T23:06:38.761Z,6.50
2019-03-02T23:09:08.831Z,6.40
2019-03-02T23:11:36.106Z,6.40
2019-03-02T23:14:03.450Z,6.60
2019-03-02T23:16:30.790Z,6.60
2019-03-02T23:18:58.057Z,6.70
2019-03-02T23:21:25.444Z,6.80
2019-03-02T23:23:52.678Z,6.70
2019-03-02T23:26:19.921Z,7.00
2019-03-02T23:28:47.250Z,7.20
2019-03-02T23:31:14.939Z,7.20
2019-03-02T23:33:42.187Z,7.10
2019-03-02T23:36:09.622Z,7.20
2019-03-02T23:38:37.007Z,7.30
2019-03-02T23:41:04.358Z,7.40
2019-03-02T23:43:31.830Z,7.60
2019-03-02T23:45:59.106Z,7.50
2019-03-02T23:48:26.409Z,7.50
2019-03-02T23:50:53.645Z,7.40
2019-03-02T23:53:20.959Z,7.40
2019-03-02T23:55:48.354Z,7.40
2019-03-02T23:58:15.624Z,7.50
